TAF KHYR
KHYR 280525Z 2806/2906 29008G20KT P6SM BKN035 TEMPO 2806/2809 BKN030 FM281800 31007KT P6SM SCT035 FM282000 31006KT P6SM FEW120=
METAR KHYR
WC KHYR
WS KHYR
WV KHYR